createdAt,value
2019-05-14T00:00:42.006Z,80.19
2019-05-14T00:01:42.390Z,80.44
2019-05-14T00:02:41.981Z,80.24
2019-05-14T00:03:41.989Z,80.44
2019-05-14T00:04:42.475Z,80.63
2019-05-14T00:05:42.446Z,81.20
2019-05-14T00:06:42.005Z,82.58
2019-05-14T00:07:41.955Z,83.15
2019-05-14T00:08:42.038Z,83.19
2019-05-14T00:09:41.944Z,82.53
2019-05-14T00:10:41.938Z,81.86
2019-05-14T00:11:42.281Z,80.82
2019-05-14T00:12:42.046Z,80.91
2019-05-14T00:13:41.917Z,81.10
2019-05-14T00:14:43.721Z,81.10
2019-05-14T00:15:41.907Z,81.29
2019-05-14T00:16:42.554Z,80.72
2019-05-14T00:17:41.952Z,80.63
2019-05-14T00:18:42.114Z,80.44
2019-05-14T00:19:41.977Z,80.72
2019-05-14T00:20:42.074Z,80.63
2019-05-14T00:21:42.500Z,80.15
2019-05-14T00:22:41.910Z,80.82
2019-05-14T00:23:42.183Z,81.86
2019-05-14T00:24:41.993Z,82.81
2019-05-14T00:25:42.013Z,82.62
2019-05-14T00:26:42.670Z,82.15
2019-05-14T00:27:41.819Z,81.20
2019-05-14T00:28:42.338Z,81.10
2019-05-14T00:29:42.072Z,80.82
2019-05-14T00:30:42.255Z,80.63
2019-05-14T00:31:42.589Z,80.72
2019-05-14T00:32:41.789Z,80.63
2019-05-14T00:33:42.083Z,80.91
2019-05-14T00:34:42.495Z,80.82
2019-05-14T00:35:41.772Z,80.63
2019-05-14T00:36:41.969Z,81.38
2019-05-14T00:37:41.756Z,81.10
2019-05-14T00:38:42.107Z,81.58
2019-05-14T00:39:41.889Z,81.58
2019-05-14T00:40:42.050Z,82.15
2019-05-14T00:41:42.172Z,82.24
2019-05-14T00:42:41.759Z,82.15
2019-05-14T00:43:41.782Z,81.67
2019-05-14T00:44:53.675Z,81.10
2019-05-14T00:45:41.889Z,81.20
2019-05-14T00:46:41.692Z,80.63
2019-05-14T00:47:42.023Z,81.20
2019-05-14T00:48:42.215Z,81.35
2019-05-14T00:49:42.511Z,81.25
2019-05-14T00:50:42.198Z,81.86
2019-05-14T00:51:41.657Z,82.01
2019-05-14T00:52:44.226Z,82.29
2019-05-14T00:53:42.114Z,81.82
2019-05-14T00:54:42.006Z,82.58
2019-05-14T00:55:42.067Z,82.77
2019-05-14T00:56:41.889Z,82.77
2019-05-14T00:57:42.482Z,83.72
2019-05-14T00:58:41.621Z,84.01
2019-05-14T00:59:41.901Z,84.67
2019-05-14T01:00:41.919Z,85.24
2019-05-14T01:01:42.555Z,85.05
2019-05-14T01:02:41.823Z,84.95
2019-05-14T01:03:41.657Z,85.15
2019-05-14T01:04:42.772Z,85.34
2019-05-14T01:05:41.557Z,85.24
2019-05-14T01:06:42.193Z,85.43
2019-05-14T01:07:42.329Z,85.24
2019-05-14T01:08:41.556Z,84.95
2019-05-14T01:09:42.041Z,84.95
2019-05-14T01:10:41.854Z,85.05
2019-05-14T01:11:42.090Z,85.34
2019-05-14T01:12:41.616Z,85.15
2019-05-14T01:13:41.788Z,85.43
2019-05-14T01:14:42.425Z,85.24
2019-05-14T01:15:41.635Z,85.34
2019-05-14T01:16:42.490Z,85.05
2019-05-14T01:17:42.162Z,85.24
2019-05-14T01:18:41.621Z,85.15
2019-05-14T01:19:42.547Z,85.24
2019-05-14T01:20:41.461Z,85.58
2019-05-14T01:21:41.803Z,85.77
2019-05-14T01:22:42.213Z,85.68
2019-05-14T01:23:41.685Z,85.49
2019-05-14T01:24:41.861Z,85.20
2019-05-14T01:25:42.230Z,85.49
2019-05-14T01:26:41.693Z,85.39
2019-05-14T01:27:41.563Z,85.43
2019-05-14T01:28:41.695Z,85.39
2019-05-14T01:29:42.539Z,84.72
2019-05-14T01:30:41.386Z,84.53
2019-05-14T01:31:41.879Z,84.82
2019-05-14T01:32:42.101Z,84.34
2019-05-14T01:33:41.360Z,84.72
2019-05-14T01:34:42.104Z,84.63
2019-05-14T01:35:42.013Z,85.20
2019-05-14T01:36:41.557Z,85.11
2019-05-14T01:37:41.793Z,85.39
2019-05-14T01:38:41.830Z,85.01
2019-05-14T01:39:42.001Z,85.30
2019-05-14T01:40:41.965Z,85.49
2019-05-14T01:41:42.409Z,84.91
2019-05-14T01:42:41.760Z,86.43
2019-05-14T01:43:41.986Z,86.15
2019-05-14T01:44:41.545Z,86.43
2019-05-14T01:45:41.800Z,85.77
2019-05-14T01:46:42.029Z,85.77
2019-05-14T01:47:41.613Z,85.49
2019-05-14T01:48:41.760Z,85.30
2019-05-14T01:49:42.764Z,85.11
2019-05-14T01:50:41.451Z,85.30
2019-05-14T01:51:42.399Z,85.11
2019-05-14T01:52:41.630Z,84.63
2019-05-14T01:53:41.647Z,84.63
2019-05-14T01:54:42.670Z,84.63
2019-05-14T01:55:41.567Z,84.82
2019-05-14T01:56:42.386Z,84.91
2019-05-14T01:57:42.457Z,85.39
2019-05-14T01:58:41.690Z,85.58
2019-05-14T01:59:42.845Z,85.58
2019-05-14T02:00:41.722Z,85.39
2019-05-14T02:01:41.718Z,85.58
2019-05-14T02:02:41.749Z,85.49
2019-05-14T02:03:41.263Z,85.39
2019-05-14T02:04:42.731Z,85.01
2019-05-14T02:05:41.607Z,84.91
2019-05-14T02:06:41.515Z,84.91
2019-05-14T02:07:42.016Z,85.58
2019-05-14T02:08:41.441Z,86.58
2019-05-14T02:09:42.042Z,86.77
2019-05-14T02:10:41.929Z,87.34
2019-05-14T02:11:41.685Z,87.34
2019-05-14T02:12:42.378Z,87.91
2019-05-14T02:13:41.481Z,88.10
2019-05-14T02:14:42.528Z,87.82
2019-05-14T02:15:43.029Z,87.91
2019-05-14T02:16:42.292Z,87.82
2019-05-14T02:17:41.540Z,87.72
2019-05-14T02:18:41.608Z,87.10
2019-05-14T02:19:42.632Z,85.68
2019-05-14T02:20:41.429Z,85.82
2019-05-14T02:21:42.533Z,86.39
2019-05-14T02:22:41.665Z,87.05
2019-05-14T02:23:42.026Z,86.77
2019-05-14T02:24:41.734Z,87.24
2019-05-14T02:25:41.358Z,87.15
2019-05-14T02:26:42.521Z,87.24
2019-05-14T02:27:41.444Z,87.05
2019-05-14T02:28:42.038Z,87.24
2019-05-14T02:29:41.637Z,87.05
2019-05-14T02:30:51.869Z,86.68
2019-05-14T02:31:40.946Z,86.58
2019-05-14T02:32:41.034Z,85.39
2019-05-14T02:33:40.950Z,85.72
2019-05-14T02:34:40.909Z,86.39
2019-05-14T02:35:40.942Z,86.30
2019-05-14T02:36:40.898Z,86.30
2019-05-14T02:37:40.896Z,85.44
2019-05-14T02:38:40.890Z,85.44
2019-05-14T02:39:41.359Z,86.30
2019-05-14T02:40:40.873Z,86.01
2019-05-14T02:41:40.862Z,86.30
2019-05-14T02:42:40.867Z,86.30
2019-05-14T02:43:41.244Z,86.39
2019-05-14T02:44:41.207Z,85.35
2019-05-14T02:46:00.056Z,85.63
2019-05-14T02:46:40.835Z,85.35
2019-05-14T02:47:40.816Z,84.63
2019-05-14T02:48:40.803Z,84.53
2019-05-14T02:49:40.800Z,84.49
2019-05-14T02:50:40.794Z,84.16
2019-05-14T02:51:40.789Z,83.73
2019-05-14T02:52:40.767Z,83.83
2019-05-14T02:53:40.773Z,84.21
2019-05-14T02:54:40.923Z,84.11
2019-05-14T02:55:40.755Z,83.87
2019-05-14T02:56:40.743Z,84.11
2019-05-14T02:57:40.764Z,84.06
2019-05-14T02:58:40.745Z,84.44
2019-05-14T02:59:40.740Z,84.34
2019-05-14T03:00:41.002Z,84.16
2019-05-14T03:01:41.055Z,84.44
2019-05-14T03:02:40.693Z,84.30
2019-05-14T03:03:40.686Z,84.53
2019-05-14T03:04:40.673Z,83.68
2019-05-14T03:05:40.673Z,82.82
2019-05-14T03:06:40.652Z,83.11
2019-05-14T03:07:40.661Z,82.45
2019-05-14T03:08:40.682Z,83.87
2019-05-14T03:09:40.695Z,84.25
2019-05-14T03:10:40.623Z,84.40
2019-05-14T03:11:40.811Z,84.59
2019-05-14T03:12:40.612Z,85.11
2019-05-14T03:13:40.615Z,85.06
2019-05-14T03:14:40.621Z,85.53
2019-05-14T03:15:40.586Z,86.39
2019-05-14T03:16:40.856Z,86.87
2019-05-14T03:17:40.817Z,87.15
2019-05-14T03:18:40.564Z,88.20
2019-05-14T03:19:41.187Z,88.01
2019-05-14T03:20:40.547Z,88.01
2019-05-14T03:21:40.539Z,88.29
2019-05-14T03:22:53.762Z,88.20
2019-05-14T03:23:40.522Z,87.82
2019-05-14T03:24:40.511Z,87.53
2019-05-14T03:25:40.508Z,86.68
2019-05-14T03:26:40.501Z,86.87
2019-05-14T03:27:40.795Z,87.24
2019-05-14T03:28:40.477Z,87.62
2019-05-14T03:29:40.629Z,86.87
2019-05-14T03:30:42.516Z,87.05
2019-05-14T03:31:42.726Z,86.87
2019-05-14T03:32:42.274Z,86.87
2019-05-14T03:33:43.960Z,87.43
2019-05-14T03:34:42.939Z,88.39
2019-05-14T03:35:49.182Z,88.95
2019-05-14T03:36:43.009Z,89.81
2019-05-14T03:37:40.407Z,89.90
2019-05-14T03:38:40.403Z,89.53
2019-05-14T03:39:40.394Z,89.24
2019-05-14T03:40:40.385Z,89.53
2019-05-14T03:41:40.369Z,90.19
2019-05-14T03:42:40.359Z,90.28
2019-05-14T03:43:40.354Z,90.38
2019-05-14T03:44:40.350Z,90.76
2019-05-14T03:45:40.345Z,90.43
2019-05-14T03:46:49.477Z,91.38
2019-05-14T03:47:40.373Z,91.75
2019-05-14T03:48:40.376Z,91.19
2019-05-14T03:49:40.333Z,91.09
2019-05-14T03:50:40.302Z,91.19
2019-05-14T03:51:40.293Z,91.75
2019-05-14T03:52:40.283Z,91.19
2019-05-14T03:53:55.426Z,91.75
2019-05-14T03:54:40.951Z,91.56
2019-05-14T03:55:40.730Z,91.85
2019-05-14T03:56:40.251Z,91.94
2019-05-14T03:57:40.298Z,91.85
2019-05-14T03:58:40.236Z,92.42
2019-05-14T03:59:40.773Z,92.33
2019-05-14T04:00:40.211Z,91.85
2019-05-14T04:01:40.428Z,91.47
2019-05-14T04:02:40.214Z,91.38
2019-05-14T04:03:40.271Z,91.00
2019-05-14T04:04:40.200Z,90.81
2019-05-14T04:05:40.343Z,91.28
2019-05-14T04:23:29.180Z,91.75
2019-05-14T04:24:29.662Z,91.19
2019-05-14T04:26:50.860Z,91.24
2019-05-14T04:27:32.751Z,90.28
2019-05-14T04:29:39.603Z,89.53
2019-05-14T04:30:40.007Z,89.90
2019-05-14T04:31:39.084Z,90.38
2019-05-14T04:32:39.431Z,89.90
2019-05-14T04:33:39.282Z,90.09
2019-05-14T04:34:39.716Z,89.90
2019-05-14T04:35:40.135Z,90.19
2019-05-14T04:36:39.206Z,89.53
2019-05-14T04:37:39.929Z,89.00
2019-05-14T04:38:40.536Z,87.76
2019-05-14T04:39:39.662Z,87.86
2019-05-14T04:40:40.014Z,88.24
2019-05-14T04:41:39.326Z,88.05
2019-05-14T04:42:40.130Z,86.82
2019-05-14T04:43:40.135Z,85.72
2019-05-14T04:44:40.371Z,85.05
2019-05-14T04:45:39.575Z,82.91
2019-05-14T04:46:39.447Z,80.52
2019-05-14T04:47:41.524Z,77.80
2019-05-14T04:48:42.529Z,75.84
2019-05-14T04:49:39.874Z,73.39
2019-05-14T04:50:40.207Z,72.72
2019-05-14T04:51:39.724Z,71.14
2019-05-14T04:52:40.256Z,68.70
2019-05-14T04:53:39.402Z,66.88
2019-05-14T04:54:39.360Z,65.67
2019-05-14T04:55:39.947Z,64.72
2019-05-14T04:56:39.904Z,64.25
2019-05-14T04:57:39.253Z,64.34
2019-05-14T04:58:40.506Z,63.42
2019-05-14T04:59:39.722Z,61.92
2019-05-14T05:00:39.188Z,60.71
2019-05-14T05:01:40.045Z,59.01
2019-05-14T05:02:39.808Z,58.44
2019-05-14T05:03:40.033Z,57.70
2019-05-14T05:04:40.847Z,56.37
2019-05-14T05:05:39.403Z,56.62
2019-05-14T05:06:39.659Z,57.65
2019-05-14T05:07:39.396Z,59.22
2019-05-14T05:08:39.507Z,61.83
2019-05-14T05:09:39.679Z,65.23
2019-05-14T05:10:39.861Z,66.09
2019-05-14T05:11:39.479Z,65.64
2019-05-14T05:12:38.775Z,63.86
2019-05-14T05:13:39.648Z,60.64
2019-05-14T05:14:38.884Z,55.36
2019-05-14T05:15:39.545Z,51.81
2019-05-14T05:16:39.145Z,49.62
2019-05-14T05:17:44.150Z,47.53
2019-05-14T05:18:39.706Z,46.50
2019-05-14T05:19:39.363Z,46.02
2019-05-14T05:20:39.358Z,44.99
2019-05-14T05:21:38.798Z,43.93
2019-05-14T05:22:39.495Z,43.47
2019-05-14T05:23:38.776Z,42.53
2019-05-14T05:24:38.137Z,41.97
2019-05-14T05:25:38.458Z,41.49
2019-05-14T05:26:39.240Z,40.74
2019-05-14T05:27:38.171Z,39.22
2019-05-14T05:28:39.091Z,38.64
2019-05-14T05:29:39.246Z,37.79
2019-05-14T05:30:38.562Z,37.31
2019-05-14T05:31:38.157Z,36.63
2019-05-14T05:32:38.888Z,36.54
2019-05-14T05:33:38.391Z,36.83
2019-05-14T05:34:38.929Z,37.13
2019-05-14T05:35:39.244Z,36.55
2019-05-14T05:36:38.180Z,36.17
2019-05-14T05:37:38.436Z,36.17
2019-05-14T05:38:39.447Z,36.27
2019-05-14T05:39:38.540Z,35.52
2019-05-14T05:40:39.143Z,35.05
2019-05-14T05:41:38.489Z,35.22
2019-05-14T05:42:38.551Z,35.61
2019-05-14T05:43:39.436Z,35.14
2019-05-14T05:44:39.343Z,35.45
2019-05-14T05:45:38.172Z,34.78
2019-05-14T05:46:38.835Z,34.12
2019-05-14T05:47:39.138Z,34.12
2019-05-14T05:48:38.936Z,32.87
2019-05-14T05:49:38.136Z,32.59
2019-05-14T05:50:38.891Z,32.31
2019-05-14T05:51:39.224Z,32.06
2019-05-14T05:52:38.801Z,32.04
2019-05-14T05:53:39.301Z,32.42
2019-05-14T05:54:38.408Z,32.62
2019-05-14T05:55:39.433Z,33.26
2019-05-14T05:56:38.758Z,34.28
2019-05-14T05:57:39.292Z,35.53
2019-05-14T05:58:39.832Z,33.67
2019-05-14T05:59:39.325Z,33.33
2019-05-14T06:00:39.866Z,33.91
2019-05-14T06:01:45.227Z,32.99
2019-05-14T06:02:39.933Z,31.56
2019-05-14T06:03:39.303Z,30.89
2019-05-14T06:04:39.386Z,30.21
2019-05-14T06:05:38.904Z,29.94
2019-05-14T06:06:39.077Z,30.32
2019-05-14T06:07:39.433Z,30.15
2019-05-14T06:08:38.732Z,30.00
2019-05-14T06:09:38.329Z,32.31
2019-05-14T06:10:39.938Z,39.11
2019-05-14T06:11:38.289Z,46.39
2019-05-14T06:12:38.897Z,50.07
2019-05-14T06:13:39.136Z,52.34
2019-05-14T06:14:38.351Z,54.04
2019-05-14T06:15:45.662Z,54.49
2019-05-14T06:16:38.618Z,56.31
2019-05-14T06:17:39.263Z,55.64
2019-05-14T06:18:39.170Z,55.54
2019-05-14T06:19:38.430Z,55.54
2019-05-14T06:20:38.684Z,56.67
2019-05-14T06:21:39.744Z,58.38
2019-05-14T06:22:38.591Z,58.64
2019-05-14T06:23:38.802Z,58.54
2019-05-14T06:24:38.971Z,58.16
2019-05-14T06:25:40.108Z,58.45
2019-05-14T06:26:38.487Z,58.07
2019-05-14T06:27:38.209Z,58.36
2019-05-14T06:28:40.752Z,58.16
2019-05-14T06:29:38.404Z,59.12
2019-05-14T06:30:39.519Z,59.12
2019-05-14T06:31:38.852Z,59.78
2019-05-14T06:32:38.759Z,59.76
2019-05-14T06:33:39.395Z,59.76
2019-05-14T06:34:38.443Z,59.19
2019-05-14T06:35:39.572Z,58.90
2019-05-14T06:36:39.566Z,59.47
2019-05-14T06:37:38.647Z,59.76
2019-05-14T06:38:38.802Z,60.81
2019-05-14T06:39:39.033Z,60.42
2019-05-14T06:40:39.555Z,62.24
2019-05-14T06:41:42.652Z,62.71
2019-05-14T06:42:39.391Z,63.20
2019-05-14T06:43:39.266Z,62.62
2019-05-14T06:44:38.687Z,62.02
2019-05-14T06:45:38.872Z,61.95
2019-05-14T06:46:39.095Z,61.47
2019-05-14T06:47:38.429Z,61.76
2019-05-14T06:48:39.567Z,63.16
2019-05-14T06:49:38.660Z,62.05
2019-05-14T06:50:39.173Z,61.35
2019-05-14T06:51:39.505Z,62.02
2019-05-14T06:52:38.735Z,62.40
2019-05-14T06:53:39.202Z,61.80
2019-05-14T06:54:38.690Z,62.59
2019-05-14T06:55:39.223Z,62.11
2019-05-14T06:56:38.667Z,62.68
2019-05-14T06:57:39.411Z,63.35
2019-05-14T06:58:38.845Z,64.59
2019-05-14T06:59:38.267Z,62.49
2019-05-14T07:00:39.429Z,63.54
2019-05-14T07:01:38.589Z,63.45
2019-05-14T07:02:43.560Z,64.31
2019-05-14T07:03:38.420Z,63.04
2019-05-14T07:04:39.501Z,63.42
2019-05-14T07:05:38.987Z,63.42
2019-05-14T07:06:39.159Z,63.80
2019-05-14T07:07:40.423Z,63.13
2019-05-14T07:08:39.291Z,63.70
2019-05-14T07:09:38.587Z,64.09
2019-05-14T07:10:39.461Z,63.99
2019-05-14T07:11:38.889Z,64.18
2019-05-14T07:12:38.799Z,64.94
2019-05-14T07:13:38.678Z,64.47
2019-05-14T07:14:38.901Z,65.33
2019-05-14T07:15:38.609Z,64.47
2019-05-14T07:16:39.059Z,65.52
2019-05-14T07:17:38.515Z,65.70
2019-05-14T07:18:49.542Z,65.89
2019-05-14T07:19:38.661Z,65.23
2019-05-14T07:20:39.229Z,64.65
2019-05-14T07:21:38.426Z,65.23
2019-05-14T07:22:38.881Z,64.75
2019-05-14T07:23:38.633Z,64.65
2019-05-14T07:24:40.567Z,65.70
2019-05-14T07:25:39.383Z,65.33
2019-05-14T07:26:38.791Z,65.04
2019-05-14T07:27:39.164Z,65.13
2019-05-14T07:28:42.011Z,66.09
2019-05-14T07:29:38.700Z,67.04
2019-05-14T07:30:39.669Z,66.18
2019-05-14T07:31:38.562Z,65.61
2019-05-14T07:32:39.408Z,65.89
2019-05-14T07:33:38.785Z,66.38
2019-05-14T07:34:38.845Z,64.94
2019-05-14T07:35:38.306Z,65.33
2019-05-14T07:36:38.727Z,65.23
2019-05-14T07:37:39.671Z,65.42
2019-05-14T07:38:39.183Z,65.45
2019-05-14T07:39:38.575Z,65.45
2019-05-14T07:40:38.819Z,65.70
2019-05-14T07:41:38.979Z,65.64
2019-05-14T07:42:38.563Z,65.13
2019-05-14T07:43:39.299Z,65.33
2019-05-14T07:44:39.021Z,66.66
2019-05-14T07:45:38.519Z,65.33
2019-05-14T07:46:38.992Z,65.55
2019-05-14T07:47:38.804Z,65.89
2019-05-14T07:48:39.283Z,64.75
2019-05-14T07:49:38.509Z,63.99
2019-05-14T07:50:39.710Z,65.17
2019-05-14T07:51:38.828Z,64.78
2019-05-14T07:52:45.340Z,64.69
2019-05-14T07:53:42.078Z,64.50
2019-05-14T07:54:38.978Z,64.97
2019-05-14T07:55:38.447Z,66.12
2019-05-14T07:56:38.465Z,64.02
2019-05-14T07:57:39.275Z,63.35
2019-05-14T07:58:38.668Z,63.45
2019-05-14T07:59:38.241Z,63.45
2019-05-14T08:00:40.173Z,63.64
2019-05-14T08:01:38.816Z,63.73
2019-05-14T08:02:38.117Z,63.45
2019-05-14T08:03:38.388Z,63.45
2019-05-14T08:04:38.248Z,62.59
2019-05-14T08:05:39.032Z,63.07
2019-05-14T08:06:39.430Z,63.92
2019-05-14T08:07:38.810Z,64.21
2019-05-14T08:08:38.585Z,63.16
2019-05-14T08:09:38.901Z,62.49
2019-05-14T08:10:39.226Z,63.54
2019-05-14T08:11:38.808Z,63.45
2019-05-14T08:12:39.189Z,63.64
2019-05-14T08:13:39.035Z,63.07
2019-05-14T08:14:45.623Z,62.21
2019-05-14T08:15:38.658Z,61.44
2019-05-14T08:16:38.206Z,61.54
2019-05-14T08:17:38.802Z,61.35
2019-05-14T08:18:39.591Z,61.07
2019-05-14T08:19:38.639Z,61.16
2019-05-14T08:20:38.153Z,62.49
2019-05-14T08:21:38.700Z,62.24
2019-05-14T08:22:38.315Z,62.05
2019-05-14T08:23:39.184Z,61.10
2019-05-14T08:24:38.609Z,62.05
2019-05-14T08:25:38.978Z,61.47
2019-05-14T08:26:38.347Z,62.81
2019-05-14T08:27:38.938Z,62.52
2019-05-14T08:28:38.409Z,61.10
2019-05-14T08:29:40.141Z,61.29
2019-05-14T08:30:38.869Z,60.71
2019-05-14T08:31:38.466Z,59.56
2019-05-14T08:32:39.099Z,60.14
2019-05-14T08:33:39.653Z,59.76
2019-05-14T08:34:38.988Z,60.04
2019-05-14T08:35:39.561Z,59.28
2019-05-14T08:36:38.104Z,59.95
2019-05-14T08:37:38.738Z,61.38
2019-05-14T08:38:38.429Z,61.10
2019-05-14T08:39:39.182Z,59.95
2019-05-14T08:40:38.258Z,61.10
2019-05-14T08:41:38.373Z,59.09
2019-05-14T08:42:38.307Z,59.47
2019-05-14T08:43:39.633Z,59.95
2019-05-14T08:44:38.982Z,59.76
2019-05-14T08:45:38.933Z,59.95
2019-05-14T08:46:38.881Z,58.33
2019-05-14T08:47:39.034Z,59.38
2019-05-14T08:48:38.937Z,58.90
2019-05-14T08:49:45.816Z,58.99
2019-05-14T08:50:38.725Z,58.70
2019-05-14T08:51:38.830Z,59.02
2019-05-14T08:52:39.190Z,58.26
2019-05-14T08:53:38.721Z,57.28
2019-05-14T08:54:39.131Z,56.92
2019-05-14T08:55:38.294Z,57.65
2019-05-14T08:56:38.978Z,58.16
2019-05-14T08:57:38.702Z,58.83
2019-05-14T08:58:38.491Z,58.07
2019-05-14T08:59:39.535Z,57.21
2019-05-14T09:00:38.699Z,57.59
2019-05-14T09:01:38.709Z,57.09
2019-05-14T09:02:39.232Z,56.32
2019-05-14T09:03:39.352Z,57.28
2019-05-14T09:04:42.591Z,59.78
2019-05-14T09:05:38.636Z,57.97
2019-05-14T09:06:38.407Z,57.11
2019-05-14T09:07:38.424Z,57.59
2019-05-14T09:08:38.996Z,57.21
2019-05-14T09:09:38.212Z,56.35
2019-05-14T09:10:40.024Z,58.26
2019-05-14T09:11:44.646Z,57.40
2019-05-14T09:12:38.780Z,56.35
2019-05-14T09:13:38.313Z,54.34
2019-05-14T09:14:38.889Z,55.01
2019-05-14T09:15:38.492Z,56.95
2019-05-14T09:16:46.155Z,55.11
2019-05-14T09:17:38.996Z,54.06
2019-05-14T09:18:38.522Z,54.91
2019-05-14T09:19:39.433Z,55.01
2019-05-14T09:20:38.123Z,54.53
2019-05-14T09:21:39.804Z,55.99
2019-05-14T09:22:39.730Z,53.67
2019-05-14T09:23:39.205Z,53.77
2019-05-14T09:24:38.749Z,55.13
2019-05-14T09:25:46.492Z,55.71
2019-05-14T09:26:39.046Z,54.37
2019-05-14T09:27:38.821Z,53.39
2019-05-14T09:28:39.181Z,55.13
2019-05-14T09:29:39.434Z,55.80
2019-05-14T09:30:38.123Z,54.66
2019-05-14T09:31:39.158Z,54.37
2019-05-14T09:32:38.871Z,54.66
2019-05-14T09:33:38.910Z,53.80
2019-05-14T09:34:39.351Z,53.61
2019-05-14T09:35:38.681Z,55.23
2019-05-14T09:36:39.608Z,54.08
2019-05-14T09:37:39.485Z,53.99
2019-05-14T09:38:42.278Z,53.99
2019-05-14T09:39:38.592Z,53.32
2019-05-14T09:40:39.677Z,54.56
2019-05-14T09:41:38.810Z,55.61
2019-05-14T09:42:39.350Z,53.80
2019-05-14T09:43:39.205Z,52.75
2019-05-14T09:44:38.677Z,53.70
2019-05-14T09:45:38.798Z,53.61
2019-05-14T09:46:38.490Z,54.85
2019-05-14T09:47:38.809Z,53.61
2019-05-14T09:48:38.029Z,52.65
2019-05-14T09:49:38.801Z,52.26
2019-05-14T09:50:38.418Z,53.63
2019-05-14T09:51:38.413Z,53.25
2019-05-14T09:52:39.181Z,52.67
2019-05-14T09:53:38.417Z,52.77
2019-05-14T09:54:40.286Z,51.24
2019-05-14T09:55:38.890Z,51.15
2019-05-14T09:56:39.580Z,52.29
2019-05-14T09:57:38.849Z,51.81
2019-05-14T09:58:38.739Z,51.05
2019-05-14T09:59:38.443Z,50.95
2019-05-14T10:00:38.934Z,50.95
2019-05-14T10:01:38.393Z,51.05
2019-05-14T10:02:39.327Z,49.90
2019-05-14T10:03:39.181Z,50.76
2019-05-14T10:04:39.212Z,51.53
2019-05-14T10:05:37.501Z,51.91
2019-05-14T10:06:39.218Z,50.09
2019-05-14T10:07:39.107Z,49.21
2019-05-14T10:08:39.020Z,49.98
2019-05-14T10:09:38.972Z,49.11
2019-05-14T10:10:39.914Z,49.98
2019-05-14T10:11:38.350Z,50.09
2019-05-14T10:12:50.740Z,50.67
2019-05-14T10:13:39.333Z,49.52
2019-05-14T10:14:39.394Z,49.33
2019-05-14T10:15:39.088Z,51.05
2019-05-14T10:16:38.446Z,51.72
2019-05-14T10:17:39.312Z,51.05
2019-05-14T10:18:38.018Z,50.09
2019-05-14T10:19:39.283Z,50.00
2019-05-14T10:20:44.875Z,49.23
2019-05-14T10:21:38.878Z,48.75
2019-05-14T10:22:39.657Z,47.89
2019-05-14T10:23:38.934Z,47.13
2019-05-14T10:24:38.584Z,47.23
2019-05-14T10:25:40.215Z,47.32
2019-05-14T10:26:39.498Z,46.08
2019-05-14T10:27:37.439Z,45.31
2019-05-14T10:28:41.260Z,45.22
2019-05-14T10:29:39.436Z,45.70
2019-05-14T10:30:37.427Z,46.75
2019-05-14T10:31:39.583Z,46.08
2019-05-14T10:32:41.267Z,46.17
2019-05-14T10:33:37.436Z,47.23
2019-05-14T10:34:37.442Z,47.99
2019-05-14T10:35:39.099Z,49.16
2019-05-14T10:36:37.415Z,46.75
2019-05-14T10:37:39.773Z,45.89
2019-05-14T10:38:38.713Z,45.79
2019-05-14T10:39:39.083Z,43.59
2019-05-14T10:40:38.541Z,42.83
2019-05-14T10:41:38.451Z,42.07
2019-05-14T10:42:40.009Z,41.87
2019-05-14T10:43:39.134Z,41.01
2019-05-14T10:44:38.677Z,42.44
2019-05-14T10:45:38.505Z,42.83
2019-05-14T10:46:38.461Z,43.30
2019-05-14T10:47:38.868Z,43.59
2019-05-14T10:48:39.601Z,44.55
2019-05-14T10:49:38.638Z,45.22
2019-05-14T10:50:55.212Z,46.66
2019-05-14T10:51:38.945Z,47.82
2019-05-14T10:52:39.532Z,49.07
2019-05-14T10:53:37.380Z,48.21
2019-05-14T10:54:40.271Z,47.52
2019-05-14T10:55:38.693Z,46.56
2019-05-14T10:56:37.365Z,47.42
2019-05-14T10:57:37.386Z,47.89
2019-05-14T10:58:37.358Z,46.46
2019-05-14T10:59:37.354Z,45.89
2019-05-14T11:00:41.527Z,45.79
2019-05-14T11:01:39.095Z,46.37
2019-05-14T11:02:38.734Z,46.30
2019-05-14T11:03:38.875Z,45.05
2019-05-14T11:04:39.023Z,44.57
2019-05-14T11:05:41.231Z,45.81
2019-05-14T11:06:38.843Z,44.76
2019-05-14T11:07:41.423Z,44.67
2019-05-14T11:08:38.773Z,44.38
2019-05-14T11:09:38.136Z,43.43
2019-05-14T11:10:41.815Z,43.62
2019-05-14T11:11:38.218Z,44.00
2019-05-14T11:12:39.628Z,43.52
2019-05-14T11:13:39.402Z,44.95
2019-05-14T11:14:38.715Z,46.58
2019-05-14T11:15:39.439Z,46.58
2019-05-14T11:16:41.635Z,47.06
2019-05-14T11:17:37.311Z,46.22
2019-05-14T11:18:39.974Z,46.22
2019-05-14T11:19:39.028Z,46.03
2019-05-14T11:20:41.746Z,45.94
2019-05-14T11:21:39.146Z,44.59
2019-05-14T11:22:37.326Z,44.59
2019-05-14T11:23:38.696Z,44.19
2019-05-14T11:24:38.521Z,45.74
2019-05-14T11:25:38.333Z,44.98
2019-05-14T11:26:39.158Z,43.54
2019-05-14T11:27:38.818Z,43.71
2019-05-14T11:28:39.482Z,44.19
2019-05-14T11:29:38.764Z,43.43
2019-05-14T11:30:39.243Z,43.14
2019-05-14T11:31:39.183Z,42.47
2019-05-14T11:32:38.518Z,40.94
2019-05-14T11:33:38.857Z,40.65
2019-05-14T11:34:39.107Z,41.24
2019-05-14T11:35:39.471Z,42.11
2019-05-14T11:36:38.835Z,41.44
2019-05-14T11:37:41.129Z,40.46
2019-05-14T11:38:37.894Z,40.75
2019-05-14T11:39:38.007Z,41.22
2019-05-14T11:40:38.715Z,42.58
2019-05-14T11:41:38.888Z,41.24
2019-05-14T11:42:38.795Z,40.65
2019-05-14T11:43:39.704Z,41.03
2019-05-14T11:44:38.158Z,42.27
2019-05-14T11:45:39.260Z,43.63
2019-05-14T11:46:49.504Z,42.87
2019-05-14T11:47:38.049Z,40.26
2019-05-14T11:48:39.316Z,40.26
2019-05-14T11:49:37.244Z,42.11
2019-05-14T11:50:37.254Z,41.72
2019-05-14T11:51:59.565Z,41.82
2019-05-14T11:52:38.813Z,41.05
2019-05-14T11:53:38.497Z,40.95
2019-05-14T11:54:40.989Z,40.77
2019-05-14T11:55:38.814Z,41.15
2019-05-14T11:56:41.709Z,40.48
2019-05-14T11:57:37.221Z,39.52
2019-05-14T11:58:37.229Z,40.77
2019-05-14T11:59:39.091Z,39.90
2019-05-14T12:00:38.688Z,39.14
2019-05-14T12:01:39.249Z,38.85
2019-05-14T12:02:38.522Z,39.72
2019-05-14T12:03:39.441Z,39.81
2019-05-14T12:04:39.114Z,40.67
2019-05-14T12:05:38.829Z,39.72
2019-05-14T12:06:38.990Z,40.09
2019-05-14T12:07:38.899Z,41.24
2019-05-14T12:08:41.550Z,42.30
2019-05-14T12:09:39.083Z,40.86
2019-05-14T12:10:38.721Z,40.86
2019-05-14T12:11:38.545Z,41.63
2019-05-14T12:12:37.195Z,41.84
2019-05-14T12:13:39.438Z,41.63
2019-05-14T12:14:38.062Z,41.74
2019-05-14T12:15:38.848Z,42.22
2019-05-14T12:16:39.297Z,42.70
2019-05-14T12:17:39.373Z,42.51
2019-05-14T12:18:41.354Z,43.08
2019-05-14T12:19:39.409Z,42.80
2019-05-14T12:20:39.634Z,42.80
2019-05-14T12:21:39.505Z,42.80
2019-05-14T12:22:39.292Z,43.35
2019-05-14T12:23:39.331Z,42.87
2019-05-14T12:24:38.744Z,43.16
2019-05-14T12:25:37.190Z,42.77
2019-05-14T12:26:38.512Z,42.87
2019-05-14T12:27:38.738Z,42.77
2019-05-14T12:28:38.615Z,42.20
2019-05-14T12:29:39.768Z,40.77
2019-05-14T12:30:39.550Z,41.72
2019-05-14T12:31:38.559Z,42.20
2019-05-14T12:32:39.632Z,42.30
2019-05-14T12:33:39.589Z,41.24
2019-05-14T12:34:38.772Z,41.05
2019-05-14T12:35:39.964Z,42.68
2019-05-14T12:36:38.903Z,42.37
2019-05-14T12:37:38.707Z,42.27
2019-05-14T12:38:38.266Z,42.27
2019-05-14T12:39:37.157Z,42.56
2019-05-14T12:40:38.287Z,42.56
2019-05-14T12:41:38.198Z,41.53
2019-05-14T12:42:39.196Z,43.06
2019-05-14T12:43:39.622Z,43.44
2019-05-14T12:44:40.505Z,43.92
2019-05-14T12:45:39.326Z,41.63
2019-05-14T12:46:37.138Z,40.29
2019-05-14T12:47:38.463Z,40.09
2019-05-14T12:48:39.013Z,40.77
2019-05-14T12:49:38.798Z,42.13
2019-05-14T12:50:39.232Z,40.78
2019-05-14T12:51:42.122Z,41.15
2019-05-14T12:52:38.834Z,40.31
2019-05-14T12:53:39.458Z,39.92
2019-05-14T12:54:38.885Z,39.54
2019-05-14T12:55:39.805Z,40.29
2019-05-14T12:56:39.078Z,38.95
2019-05-14T12:57:39.402Z,39.14
2019-05-14T12:58:42.867Z,39.14
2019-05-14T12:59:38.101Z,39.23
2019-05-14T13:00:39.386Z,39.81
2019-05-14T13:01:37.115Z,40.29
2019-05-14T13:02:37.120Z,37.90
2019-05-14T13:03:37.114Z,37.90
2019-05-14T13:04:37.178Z,38.76
2019-05-14T13:05:37.099Z,37.99
2019-05-14T13:06:39.918Z,39.04
2019-05-14T13:07:41.434Z,39.04
2019-05-14T13:08:38.739Z,37.99
2019-05-14T13:09:38.528Z,38.01
2019-05-14T13:10:38.622Z,39.23
2019-05-14T13:11:41.287Z,39.25